Time;durP1;ratioP1;P1;durP2;ratioP2;P2;SDS_P1;SDS_P2;PMS_P1;PMS_P2;Temp;Humidity;BMP_temperature;BMP_pressure;BME280_temperature;BME280_humidity;BME280_pressure;Samples;Min_cycle;Max_cycle;Signal;HPM_P1;HPM_P2
2021/05/12 00:00:30;;;;;;;10.38;6.32;;;12.40;99.90;;;;;;5015422;28;20497;-71
2021/05/12 00:02:58;;;;;;;9.45;5.72;;;12.30;99.90;;;;;;5001138;28;20096;-72
2021/05/12 00:05:26;;;;;;;11.75;7.53;;;12.30;99.90;;;;;;5005778;28;20387;-71
2021/05/12 00:07:53;;;;;;;14.77;7.78;;;12.30;99.90;;;;;;5001074;28;20050;-72
2021/05/12 00:10:22;;;;;;;12.25;7.10;;;12.20;99.90;;;;;;5008555;28;20070;-71
2021/05/12 00:12:50;;;;;;;12.65;6.57;;;12.20;99.90;;;;;;5005226;28;20521;-72
2021/05/12 00:15:20;;;;;;;12.35;7.28;;;12.20;99.90;;;;;;5002716;28;20125;-72
2021/05/12 00:17:49;;;;;;;9.60;5.57;;;12.20;99.90;;;;;;4999839;28;20074;-71
2021/05/12 00:20:22;;;;;;;9.65;5.70;;;12.10;99.90;;;;;;4999171;28;20049;-71
2021/05/12 00:22:55;;;;;;;10.70;7.07;;;12.10;99.90;;;;;;5008771;28;20104;-72
2021/05/12 00:25:22;;;;;;;10.52;6.90;;;12.00;99.90;;;;;;5008879;28;20056;-71
2021/05/12 00:27:49;;;;;;;9.70;5.83;;;11.90;99.90;;;;;;5008025;28;20050;-71
2021/05/12 00:30:19;;;;;;;14.70;6.63;;;11.90;99.90;;;;;;5008087;28;20109;-71
2021/05/12 00:32:45;;;;;;;12.73;6.88;;;11.80;99.90;;;;;;5011849;28;20561;-71
2021/05/12 00:35:13;;;;;;;8.93;5.53;;;11.80;99.90;;;;;;5011087;28;20069;-71
2021/05/12 00:37:40;;;;;;;7.47;4.97;;;11.80;99.90;;;;;;5013687;28;20050;-71
2021/05/12 00:40:09;;;;;;;8.82;5.55;;;11.70;99.90;;;;;;5011113;28;20042;-71
2021/05/12 00:42:36;;;;;;;8.73;5.28;;;11.70;99.90;;;;;;5007903;28;20058;-72
2021/05/12 00:45:10;;;;;;;9.18;5.00;;;11.70;99.90;;;;;;5006615;28;20049;-71
2021/05/12 00:47:37;;;;;;;8.02;4.38;;;11.70;99.90;;;;;;5005200;28;20137;-71
2021/05/12 00:50:05;;;;;;;9.57;4.88;;;11.70;99.90;;;;;;5022040;28;20484;-71
2021/05/12 00:52:32;;;;;;;7.90;4.55;;;11.70;99.90;;;;;;5010018;28;20536;-71
2021/05/12 00:54:59;;;;;;;7.20;4.57;;;11.70;99.90;;;;;;5014486;28;20054;-71
2021/05/12 00:57:26;;;;;;;9.05;4.68;;;11.60;99.90;;;;;;5008139;28;20042;-72
2021/05/12 00:59:53;;;;;;;7.55;4.10;;;11.60;99.90;;;;;;5013207;28;20052;-71
2021/05/12 01:02:21;;;;;;;7.88;4.95;;;11.60;99.90;;;;;;5006579;28;20053;-72
2021/05/12 01:04:48;;;;;;;9.40;5.07;;;11.60;99.90;;;;;;5014604;28;20076;-71
2021/05/12 01:07:15;;;;;;;16.90;7.23;;;11.60;99.90;;;;;;5011638;28;20569;-71
2021/05/12 01:09:42;;;;;;;10.85;6.40;;;11.60;99.90;;;;;;5013047;28;20049;-71
2021/05/12 01:12:09;;;;;;;10.57;6.20;;;11.70;99.90;;;;;;5000021;28;20046;-71
2021/05/12 01:14:36;;;;;;;10.57;5.75;;;11.70;99.90;;;;;;5005710;28;20041;-71
2021/05/12 01:17:03;;;;;;;11.88;6.65;;;11.60;99.90;;;;;;5004160;28;20048;-71
2021/05/12 01:19:29;;;;;;;7.93;4.70;;;11.60;99.90;;;;;;5005988;28;20145;-71
2021/05/12 01:21:57;;;;;;;9.43;5.57;;;11.60;99.90;;;;;;5001270;28;20053;-71
2021/05/12 01:24:24;;;;;;;8.38;5.13;;;11.60;99.90;;;;;;5026386;28;20056;-71
2021/05/12 01:26:51;;;;;;;10.15;5.55;;;11.60;99.90;;;;;;5005605;28;20362;-71
2021/05/12 01:29:19;;;;;;;10.82;6.53;;;11.60;99.90;;;;;;5020142;28;20180;-71
2021/05/12 01:31:46;;;;;;;9.13;5.80;;;11.70;99.90;;;;;;5021818;28;20501;-71
2021/05/12 01:34:17;;;;;;;10.17;5.97;;;11.70;99.90;;;;;;5018111;28;20048;-71
2021/05/12 01:36:45;;;;;;;11.75;5.65;;;11.60;99.90;;;;;;5008938;28;20041;-72
2021/05/12 01:39:13;;;;;;;10.15;5.97;;;11.60;99.90;;;;;;5020923;28;20513;-71
2021/05/12 01:41:41;;;;;;;11.57;6.25;;;11.60;99.90;;;;;;5009172;28;20413;-71
2021/05/12 01:44:10;;;;;;;12.20;6.37;;;11.70;99.90;;;;;;5017805;28;20052;-71
2021/05/12 01:46:38;;;;;;;13.18;7.40;;;11.60;99.90;;;;;;5008056;28;20140;-71
2021/05/12 01:49:05;;;;;;;;;;;11.60;99.90;;;;;;5011082;28;20405;-71
2021/05/12 01:51:33;;;;;;;10.00;6.22;;;11.60;99.90;;;;;;5003379;28;19928;-71
2021/05/12 01:54:00;;;;;;;9.95;6.13;;;11.60;99.90;;;;;;5007900;28;20445;-72
2021/05/12 01:56:26;;;;;;;9.55;5.25;;;11.60;99.90;;;;;;5011101;28;20077;-71
2021/05/12 01:58:53;;;;;;;10.27;6.25;;;11.60;99.90;;;;;;5008215;28;20465;-71
2021/05/12 02:01:20;;;;;;;11.00;6.35;;;11.70;99.90;;;;;;5002045;28;20608;-71
2021/05/12 02:04:05;;;;;;;9.70;6.03;;;11.60;99.90;;;;;;5011787;28;20890;-71
2021/05/12 02:06:32;;;;;;;10.98;6.30;;;11.70;99.90;;;;;;5007675;28;20141;-72
2021/05/12 02:09:00;;;;;;;8.68;5.53;;;11.60;99.90;;;;;;5007182;28;20158;-71
2021/05/12 02:11:27;;;;;;;10.30;5.35;;;11.60;99.90;;;;;;5006965;28;20050;-72
2021/05/12 02:13:54;;;;;;;9.90;4.90;;;11.60;99.90;;;;;;5025257;28;20071;-71
2021/05/12 02:16:21;;;;;;;10.55;5.65;;;11.60;99.90;;;;;;5019476;28;20480;-71
2021/05/12 02:18:47;;;;;;;10.27;5.50;;;11.60;99.90;;;;;;5024716;28;20042;-71
2021/05/12 02:21:14;;;;;;;9.40;6.05;;;11.60;99.90;;;;;;4999537;28;20472;-71
2021/05/12 02:23:41;;;;;;;7.97;4.85;;;11.60;99.90;;;;;;5015273;28;20151;-71
2021/05/12 02:26:08;;;;;;;8.13;4.95;;;11.60;99.90;;;;;;5006909;28;20046;-71
2021/05/12 02:28:34;;;;;;;8.85;5.45;;;11.50;99.90;;;;;;5010020;28;20049;-73
2021/05/12 02:31:04;;;;;;;9.38;5.65;;;11.50;99.90;;;;;;5013405;28;20065;-71
2021/05/12 02:33:31;;;;;;;9.30;5.75;;;11.50;99.90;;;;;;5009278;28;20056;-71
2021/05/12 02:35:58;;;;;;;8.23;4.68;;;11.50;99.90;;;;;;5008384;28;20073;-72
2021/05/12 02:38:24;;;;;;;9.65;6.07;;;11.50;99.90;;;;;;5007627;28;20145;-72
2021/05/12 02:40:51;;;;;;;11.73;5.72;;;11.40;99.90;;;;;;5003651;28;20056;-71
2021/05/12 02:43:18;;;;;;;9.07;5.80;;;11.40;99.90;;;;;;5013867;28;20444;-72
2021/05/12 02:45:45;;;;;;;9.65;5.82;;;11.40;99.90;;;;;;5004113;28;20045;-71
2021/05/12 02:48:11;;;;;;;9.50;6.00;;;11.40;99.90;;;;;;5008755;28;20106;-72
2021/05/12 02:50:41;;;;;;;8.77;5.78;;;11.30;99.90;;;;;;5009303;28;20440;-72
2021/05/12 02:53:10;;;;;;;12.05;6.20;;;11.30;99.90;;;;;;5009008;28;20478;-72
2021/05/12 02:55:37;;;;;;;11.50;5.60;;;11.30;99.90;;;;;;5013863;28;20088;-71
2021/05/12 02:58:06;;;;;;;10.83;6.13;;;11.20;99.90;;;;;;5014466;28;20141;-71
2021/05/12 03:00:34;;;;;;;11.85;6.38;;;11.20;99.90;;;;;;5000456;28;20046;-72
2021/05/12 03:03:01;;;;;;;;;;;11.20;99.90;;;;;;5005351;28;20045;-71
2021/05/12 03:05:30;;;;;;;11.02;6.43;;;11.20;99.90;;;;;;5009206;28;19963;-72
2021/05/12 03:07:57;;;;;;;11.52;6.80;;;11.10;99.90;;;;;;5025284;28;20048;-71
2021/05/12 03:10:24;;;;;;;13.60;7.50;;;11.00;99.90;;;;;;5007286;28;20056;-71
2021/05/12 03:12:51;;;;;;;11.82;7.05;;;10.90;99.90;;;;;;5009361;28;20408;-72
2021/05/12 03:15:23;;;;;;;12.18;7.13;;;10.80;99.90;;;;;;5003499;28;20503;-72
2021/05/12 03:17:51;;;;;;;11.43;6.38;;;10.70;99.90;;;;;;5000037;28;20081;-72
2021/05/12 03:20:20;;;;;;;13.98;8.05;;;10.70;99.90;;;;;;4998798;28;20073;-72
2021/05/12 03:22:47;;;;;;;11.68;6.80;;;10.60;99.90;;;;;;5004442;28;20045;-72
2021/05/12 03:25:15;;;;;;;13.45;7.30;;;10.70;99.90;;;;;;5001897;28;20058;-71
2021/05/12 03:27:43;;;;;;;13.23;7.10;;;10.60;99.90;;;;;;5046159;28;20058;-72
2021/05/12 03:30:17;;;;;;;11.73;7.15;;;10.60;99.90;;;;;;5005121;28;20181;-72
2021/05/12 03:32:47;;;;;;;15.10;7.68;;;10.60;99.90;;;;;;5003981;28;20058;-72
2021/05/12 03:35:13;;;;;;;11.93;8.02;;;10.60;99.90;;;;;;5003391;28;20084;-71
2021/05/12 03:37:40;;;;;;;14.43;9.02;;;10.60;99.90;;;;;;5004320;28;20046;-71
2021/05/12 03:40:08;;;;;;;10.38;6.68;;;10.60;99.90;;;;;;5005802;28;20527;-71
2021/05/12 03:42:35;;;;;;;9.07;5.60;;;10.50;99.90;;;;;;5001168;28;20058;-71
2021/05/12 03:45:17;;;;;;;11.50;7.40;;;10.50;99.90;;;;;;5005017;28;20414;-72
2021/05/12 03:47:46;;;;;;;10.48;6.60;;;10.50;99.90;;;;;;5004358;28;20362;-72
2021/05/12 03:50:23;;;;;;;13.45;8.73;;;10.50;99.90;;;;;;5002901;28;20088;-72
2021/05/12 03:52:50;;;;;;;12.02;8.13;;;10.50;99.90;;;;;;5005853;28;20144;-72
2021/05/12 03:55:21;;;;;;;12.52;7.13;;;10.50;99.90;;;;;;5006634;28;20060;-72
2021/05/12 03:57:48;;;;;;;13.90;7.65;;;10.40;99.90;;;;;;5019607;28;20038;-72
2021/05/12 04:00:16;;;;;;;11.32;6.95;;;10.40;99.90;;;;;;5012720;28;20362;-71
2021/05/12 04:02:43;;;;;;;11.50;6.90;;;10.40;99.90;;;;;;4998480;28;20050;-72
2021/05/12 04:05:11;;;;;;;11.07;6.70;;;10.40;99.90;;;;;;5003617;28;20452;-72
2021/05/12 04:07:38;;;;;;;;;;;10.30;99.90;;;;;;5010577;28;20153;-72
2021/05/12 04:10:48;;;;;;;11.15;6.22;;;10.30;99.90;;;;;;5005158;28;20391;-72
2021/05/12 04:13:15;;;;;;;9.90;5.78;;;10.30;99.90;;;;;;4999460;28;20046;-72
2021/05/12 04:15:42;;;;;;;11.43;6.55;;;10.30;99.90;;;;;;5006126;28;20085;-72
2021/05/12 04:18:08;;;;;;;10.27;5.78;;;10.20;99.90;;;;;;5019778;28;20068;-71
2021/05/12 04:20:35;;;;;;;12.13;6.97;;;10.20;99.90;;;;;;4999776;28;20526;-72
2021/05/12 04:23:02;;;;;;;14.45;7.50;;;10.20;99.90;;;;;;5011152;28;20057;-71
2021/05/12 04:25:30;;;;;;;14.95;8.88;;;10.10;99.90;;;;;;5008045;28;20072;-72
2021/05/12 04:27:57;;;;;;;14.40;8.45;;;10.10;99.90;;;;;;5001216;28;20144;-72
2021/05/12 04:30:24;;;;;;;15.50;8.73;;;10.10;99.90;;;;;;5001775;28;20156;-72
2021/05/12 04:32:51;;;;;;;13.40;7.80;;;10.10;99.90;;;;;;5010511;28;20073;-72
2021/05/12 04:35:19;;;;;;;15.75;8.27;;;10.00;99.90;;;;;;5004717;28;20133;-72
2021/05/12 04:37:48;;;;;;;12.30;7.75;;;10.00;99.90;;;;;;5006547;28;20046;-72
2021/05/12 04:40:14;;;;;;;;;;;10.00;99.90;;;;;;5007073;28;20046;-72
2021/05/12 04:42:41;;;;;;;11.93;6.50;;;9.90;99.90;;;;;;5008164;28;19925;-72
2021/05/12 04:45:10;;;;;;;11.13;6.28;;;9.90;99.90;;;;;;5005762;28;20046;-72
2021/05/12 04:47:37;;;;;;;10.73;6.80;;;10.00;99.90;;;;;;5006354;28;20085;-72
2021/05/12 04:50:06;;;;;;;10.63;6.50;;;10.00;99.90;;;;;;5003332;28;20205;-71
2021/05/12 04:52:33;;;;;;;11.85;6.82;;;10.00;99.90;;;;;;5010564;28;20081;-72
2021/05/12 04:55:00;;;;;;;10.27;5.85;;;10.00;99.90;;;;;;5009142;28;20109;-72
2021/05/12 04:57:27;;;;;;;9.55;5.43;;;10.00;99.90;;;;;;5006029;28;20482;-71
2021/05/12 04:59:53;;;;;;;7.75;4.38;;;10.10;99.90;;;;;;5008206;28;20042;-71
2021/05/12 05:02:20;;;;;;;8.30;4.43;;;10.20;99.90;;;;;;5010690;28;20058;-72
2021/05/12 05:04:47;;;;;;;13.77;5.10;;;10.30;99.90;;;;;;5005316;28;20137;-71
2021/05/12 05:07:14;;;;;;;8.63;5.25;;;10.30;99.90;;;;;;5048224;28;20049;-72
2021/05/12 05:09:41;;;;;;;7.75;5.40;;;10.40;99.90;;;;;;5008237;28;20089;-72
2021/05/12 05:12:07;;;;;;;8.07;5.85;;;10.50;99.90;;;;;;5008817;28;20049;-71
2021/05/12 05:14:34;;;;;;;11.27;6.93;;;10.60;99.90;;;;;;5009779;28;20401;-71
2021/05/12 05:17:02;;;;;;;16.30;7.20;;;10.80;99.90;;;;;;5005777;28;20041;-72
2021/05/12 05:19:30;;;;;;;11.43;7.15;;;10.90;99.90;;;;;;5019803;28;20413;-72
2021/05/12 05:22:00;;;;;;;10.40;6.10;;;11.00;99.90;;;;;;5004857;28;20077;-72
2021/05/12 05:24:26;;;;;;;13.20;7.10;;;11.10;99.90;;;;;;5009505;28;20137;-72
2021/05/12 05:26:53;;;;;;;13.88;7.45;;;11.30;99.90;;;;;;5003404;28;20432;-71
2021/05/12 05:29:20;;;;;;;14.60;7.68;;;11.30;99.90;;;;;;5013722;28;20136;-72
2021/05/12 05:31:47;;;;;;;13.57;7.38;;;11.40;99.90;;;;;;5003263;28;20045;-71
2021/05/12 05:34:14;;;;;;;16.10;8.20;;;11.50;99.90;;;;;;5004650;28;20046;-72
2021/05/12 05:36:40;;;;;;;17.00;8.68;;;11.60;99.90;;;;;;5002255;28;20085;-71
2021/05/12 05:39:07;;;;;;;14.90;8.45;;;11.70;99.90;;;;;;5005578;28;20497;-72
2021/05/12 05:41:34;;;;;;;19.35;9.85;;;11.80;99.90;;;;;;5019424;28;20057;-71
2021/05/12 05:44:03;;;;;;;18.42;10.65;;;11.90;99.90;;;;;;5003473;28;20053;-72
2021/05/12 05:46:30;;;;;;;22.02;10.07;;;11.90;99.90;;;;;;5010123;28;20128;-71
2021/05/12 05:48:57;;;;;;;21.40;10.52;;;11.90;99.90;;;;;;5004294;28;20050;-71
2021/05/12 05:51:24;;;;;;;17.55;9.45;;;12.00;99.90;;;;;;5000587;28;20046;-71
2021/05/12 05:53:51;;;;;;;15.65;9.43;;;12.00;99.90;;;;;;5006303;28;20051;-71
2021/05/12 05:56:17;;;;;;;20.77;9.88;;;12.00;99.90;;;;;;5007904;28;20129;-71
2021/05/12 05:58:44;;;;;;;17.38;9.93;;;12.10;99.90;;;;;;5001017;28;20137;-71
2021/05/12 06:01:11;;;;;;;15.18;8.77;;;12.20;99.90;;;;;;4996679;28;20048;-72
2021/05/12 06:03:37;;;;;;;14.63;9.15;;;12.20;99.90;;;;;;4995214;28;20430;-71
2021/05/12 06:06:04;;;;;;;16.15;9.02;;;12.30;99.90;;;;;;4994375;28;20046;-71
2021/05/12 06:08:31;;;;;;;18.33;8.30;;;12.40;99.90;;;;;;4995969;28;20134;-71
2021/05/12 06:10:58;;;;;;;18.13;8.38;;;12.50;99.90;;;;;;5002029;28;20056;-71
2021/05/12 06:13:25;;;;;;;15.05;6.38;;;12.50;99.90;;;;;;5010250;28;20133;-71
2021/05/12 06:15:51;;;;;;;15.98;5.95;;;12.60;99.90;;;;;;5005532;28;20074;-71
2021/05/12 06:18:18;;;;;;;19.45;6.43;;;12.70;99.90;;;;;;5020045;28;20093;-71
2021/05/12 06:20:45;;;;;;;13.48;4.78;;;12.80;99.90;;;;;;5011010;28;20089;-71
2021/05/12 06:23:12;;;;;;;19.42;5.45;;;12.90;99.90;;;;;;4989412;28;20050;-71
2021/05/12 06:25:54;;;;;;;13.65;5.40;;;12.90;99.90;;;;;;5002882;28;20067;-71
2021/05/12 06:28:20;;;;;;;13.93;4.82;;;13.00;99.90;;;;;;5022629;28;20157;-71
2021/05/12 06:30:50;;;;;;;18.70;5.90;;;13.00;99.90;;;;;;4989434;28;20046;-71
2021/05/12 06:33:18;;;;;;;17.17;4.97;;;13.10;99.90;;;;;;4994612;28;20078;-71
2021/05/12 06:35:45;;;;;;;15.73;5.90;;;13.10;99.90;;;;;;4987189;28;20118;-71
2021/05/12 06:38:11;;;;;;;14.85;5.57;;;13.20;99.90;;;;;;5021760;28;20050;-71
2021/05/12 06:40:38;;;;;;;13.88;5.70;;;13.20;99.90;;;;;;4992320;28;20043;-71
2021/05/12 06:43:05;;;;;;;14.35;6.07;;;13.30;99.90;;;;;;5005137;28;20038;-71
2021/05/12 06:45:32;;;;;;;16.88;6.03;;;13.30;99.90;;;;;;4991712;28;20050;-71
2021/05/12 06:47:59;;;;;;;21.40;5.72;;;13.40;99.90;;;;;;4988128;28;20757;-71
2021/05/12 06:50:26;;;;;;;22.48;6.05;;;13.40;99.90;;;;;;5020801;28;20440;-71
2021/05/12 06:52:56;;;;;;;12.80;5.35;;;13.50;99.90;;;;;;5004882;28;20224;-71
2021/05/12 06:55:24;;;;;;;14.75;5.38;;;13.60;99.90;;;;;;4985824;28;20078;-71
2021/05/12 06:57:51;;;;;;;;;;;13.60;99.90;;;;;;4987672;28;20061;-71
2021/05/12 07:00:19;;;;;;;17.48;4.32;;;13.60;99.90;;;;;;4987531;28;19929;-71
2021/05/12 07:02:50;;;;;;;18.05;3.55;;;13.70;99.90;;;;;;5009163;28;20417;-70
2021/05/12 07:05:19;;;;;;;13.48;3.95;;;13.70;99.90;;;;;;4998308;28;20497;-71
2021/05/12 07:07:46;;;;;;;9.55;3.22;;;13.70;99.90;;;;;;4997156;28;20052;-70
2021/05/12 07:10:13;;;;;;;17.15;3.50;;;13.70;99.90;;;;;;4997160;28;20454;-71
2021/05/12 07:12:40;;;;;;;13.77;3.30;;;13.70;99.90;;;;;;4994105;28;20057;-71
2021/05/12 07:15:09;;;;;;;11.48;3.35;;;13.70;99.90;;;;;;4989266;28;20046;-71
2021/05/12 07:17:36;;;;;;;9.00;2.65;;;13.80;99.90;;;;;;4991440;28;20366;-71
2021/05/12 07:20:04;;;;;;;15.23;2.90;;;13.80;99.90;;;;;;5005531;28;20125;-71
2021/05/12 07:22:31;;;;;;;11.40;3.00;;;13.90;99.90;;;;;;4993119;28;20054;-71
2021/05/12 07:24:58;;;;;;;13.00;2.80;;;13.90;99.90;;;;;;4989308;28;20138;-71
2021/05/12 07:27:25;;;;;;;11.07;2.25;;;14.00;99.90;;;;;;4987389;28;20057;-70
2021/05/12 07:29:52;;;;;;;14.27;2.78;;;14.10;99.90;;;;;;4984817;28;20092;-70
2021/05/12 07:32:19;;;;;;;14.18;2.65;;;14.10;99.90;;;;;;4988675;28;20132;-70
2021/05/12 07:34:51;;;;;;;13.32;2.50;;;14.20;99.90;;;;;;5019666;28;20050;-71
2021/05/12 07:37:18;;;;;;;17.73;2.90;;;14.30;99.90;;;;;;4988060;28;20069;-70
2021/05/12 07:39:45;;;;;;;15.15;2.63;;;14.30;99.90;;;;;;5002542;28;20070;-70
2021/05/12 07:42:13;;;;;;;15.52;2.92;;;14.30;99.90;;;;;;4987659;28;20058;-70
2021/05/12 07:44:40;;;;;;;14.20;2.42;;;14.30;99.90;;;;;;5002183;28;24500;-70
2021/05/12 07:47:07;;;;;;;16.45;2.90;;;14.40;99.90;;;;;;4988901;28;20390;-70
2021/05/12 07:49:34;;;;;;;13.23;2.70;;;14.40;99.90;;;;;;4985308;28;20058;-70
2021/05/12 07:52:02;;;;;;;11.38;2.38;;;14.60;99.90;;;;;;4985110;28;20065;-70
2021/05/12 07:54:29;;;;;;;13.38;2.63;;;14.60;99.90;;;;;;4989963;28;20068;-70
2021/05/12 07:56:55;;;;;;;14.10;2.45;;;14.60;99.90;;;;;;4986923;28;20041;-70
2021/05/12 07:59:24;;;;;;;13.38;2.65;;;14.60;99.90;;;;;;4984046;28;20042;-71
2021/05/12 08:01:50;;;;;;;;;;;14.70;99.90;;;;;;4984117;28;20046;-71
2021/05/12 08:04:17;;;;;;;9.88;2.60;;;14.70;99.90;;;;;;4985381;28;19948;-70
2021/05/12 08:06:43;;;;;;;8.88;2.85;;;14.80;99.90;;;;;;4988748;28;20200;-70
2021/05/12 08:09:10;;;;;;;10.50;3.20;;;14.80;99.90;;;;;;4986569;28;20079;-70
2021/05/12 08:11:37;;;;;;;13.60;2.53;;;14.90;99.90;;;;;;4988260;28;20050;-70
2021/05/12 08:14:04;;;;;;;12.40;3.03;;;15.00;99.90;;;;;;4987827;28;20046;-70
2021/05/12 08:16:30;;;;;;;12.05;3.00;;;15.00;99.90;;;;;;4989000;28;20413;-71
2021/05/12 08:18:57;;;;;;;11.23;2.78;;;15.10;99.90;;;;;;4988964;28;20034;-71
2021/05/12 08:21:24;;;;;;;11.45;2.70;;;15.20;99.90;;;;;;4988390;28;20056;-71
2021/05/12 08:23:51;;;;;;;17.63;2.63;;;15.20;99.90;;;;;;4996090;28;20101;-71
2021/05/12 08:26:18;;;;;;;8.00;1.95;;;15.30;99.90;;;;;;4998828;28;20074;-71
2021/05/12 08:28:45;;;;;;;10.00;1.83;;;15.40;99.90;;;;;;5001571;28;20382;-71
2021/05/12 08:31:13;;;;;;;12.32;1.92;;;15.40;99.90;;;;;;4986893;28;20042;-71
2021/05/12 08:33:41;;;;;;;11.85;1.85;;;15.40;99.90;;;;;;4989012;28;20056;-70
2021/05/12 08:36:08;;;;;;;9.35;2.20;;;15.40;99.90;;;;;;4987954;28;20074;-71
2021/05/12 08:38:37;;;;;;;16.55;2.30;;;15.50;99.90;;;;;;4991196;28;20185;-71
2021/05/12 08:41:04;;;;;;;15.60;2.13;;;15.60;99.90;;;;;;4986542;28;20075;-71
2021/05/12 08:43:31;;;;;;;7.60;1.90;;;15.70;99.90;;;;;;4986861;28;20045;-71
2021/05/12 08:45:57;;;;;;;7.50;1.75;;;15.70;99.90;;;;;;5005059;28;20050;-71
2021/05/12 08:48:25;;;;;;;12.15;1.90;;;15.70;99.90;;;;;;4987875;28;20483;-71
2021/05/12 08:50:53;;;;;;;8.02;1.65;;;15.80;99.90;;;;;;5001589;28;20050;-71
2021/05/12 08:53:20;;;;;;;12.43;2.07;;;15.90;99.90;;;;;;4988854;28;20054;-70
2021/05/12 08:55:47;;;;;;;8.73;1.80;;;15.90;99.90;;;;;;4988884;28;20313;-71
2021/05/12 08:58:14;;;;;;;12.07;2.08;;;16.00;99.90;;;;;;4991918;28;20329;-70
2021/05/12 09:00:45;;;;;;;17.58;2.70;;;16.10;99.90;;;;;;4987324;28;20042;-70
2021/05/12 09:03:13;;;;;;;11.93;2.10;;;16.10;99.90;;;;;;5005153;28;20470;-71
2021/05/12 09:05:39;;;;;;;11.70;2.40;;;16.20;99.90;;;;;;4990461;28;20050;-71
2021/05/12 09:08:06;;;;;;;13.07;2.60;;;16.20;99.90;;;;;;4994424;28;20060;-71
2021/05/12 09:10:36;;;;;;;11.68;2.03;;;16.20;99.90;;;;;;4991633;28;20518;-71
2021/05/12 09:13:03;;;;;;;10.95;2.63;;;16.30;99.90;;;;;;4989527;28;20136;-70
2021/05/12 09:15:31;;;;;;;8.88;2.10;;;16.30;99.90;;;;;;4991048;28;20046;-72
2021/05/12 09:18:03;;;;;;;14.43;2.47;;;16.30;99.90;;;;;;4991741;28;20046;-71
2021/05/12 09:20:37;;;;;;;11.77;2.00;;;16.30;99.90;;;;;;4989857;28;20557;-71
2021/05/12 09:23:13;;;;;;;11.32;2.28;;;16.30;99.90;;;;;;4994985;28;20463;-71
2021/05/12 09:25:51;;;;;;;11.07;3.58;;;16.30;99.90;;;;;;4992242;28;20046;-71
2021/05/12 09:28:20;;;;;;;8.80;2.00;;;16.20;99.90;;;;;;4990855;28;20058;-71
2021/05/12 09:31:09;;;;;;;13.38;2.22;;;16.30;99.90;;;;;;5005266;28;20466;-70
2021/05/12 09:33:43;;;;;;;10.52;1.98;;;16.30;99.90;;;;;;5022238;28;20395;-70
2021/05/12 09:36:24;;;;;;;11.73;2.25;;;16.30;99.90;;;;;;4991609;28;20537;-71
2021/05/12 09:38:55;;;;;;;12.45;2.42;;;16.30;99.90;;;;;;4989075;28;20411;-71
2021/05/12 09:41:35;;;;;;;13.57;2.53;;;16.40;99.90;;;;;;4993457;28;20072;-71
2021/05/12 09:44:05;;;;;;;12.93;2.58;;;16.60;99.90;;;;;;4989344;28;20057;-71
2021/05/12 09:46:40;;;;;;;10.52;2.17;;;16.70;99.90;;;;;;4988974;28;20056;-71
2021/05/12 09:49:12;;;;;;;12.80;3.28;;;16.70;99.90;;;;;;4989306;28;20557;-71
2021/05/12 09:51:47;;;;;;;11.05;2.50;;;16.60;99.90;;;;;;5004737;28;20050;-71
2021/05/12 09:54:22;;;;;;;10.57;2.45;;;16.40;99.90;;;;;;4989253;28;20057;-71
2021/05/12 09:56:55;;;;;;;14.65;2.67;;;16.30;99.90;;;;;;4991339;28;20046;-71
2021/05/12 09:59:27;;;;;;;8.32;2.35;;;16.30;99.90;;;;;;4989077;28;20137;-71
2021/05/12 10:01:56;;;;;;;9.52;2.60;;;16.30;99.90;;;;;;4989852;28;20502;-71
2021/05/12 10:04:54;;;;;;;10.52;2.95;;;16.30;99.90;;;;;;4988462;28;20054;-71
2021/05/12 10:07:25;;;;;;;13.52;2.80;;;16.30;99.90;;;;;;4987801;28;20109;-71
2021/05/12 10:09:53;;;;;;;11.23;2.33;;;16.30;99.90;;;;;;4986085;28;20061;-71
2021/05/12 10:12:25;;;;;;;11.00;2.47;;;16.40;99.90;;;;;;5022377;28;20072;-71
2021/05/12 10:14:55;;;;;;;10.18;2.25;;;16.40;99.90;;;;;;4988925;28;20089;-71
2021/05/12 10:17:24;;;;;;;12.68;2.50;;;16.40;99.70;;;;;;4991339;28;20359;-71
2021/05/12 10:19:54;;;;;;;11.93;2.30;;;16.30;99.90;;;;;;4987659;28;20050;-71
2021/05/12 10:22:20;;;;;;;8.35;2.13;;;16.30;99.40;;;;;;4991162;28;20050;-71
2021/05/12 10:24:50;;;;;;;8.40;2.33;;;16.40;99.90;;;;;;4992170;28;20577;-71
2021/05/12 10:27:28;;;;;;;10.13;2.40;;;16.50;99.90;;;;;;4990283;28;20464;-71
2021/05/12 10:29:57;;;;;;;11.25;2.30;;;16.50;99.90;;;;;;4984084;28;20069;-71
2021/05/12 10:32:34;;;;;;;13.40;3.28;;;16.70;99.90;;;;;;4985887;28;20073;-71
2021/05/12 10:35:08;;;;;;;8.93;2.20;;;16.80;99.50;;;;;;4990084;28;20046;-70
2021/05/12 10:37:36;;;;;;;10.82;2.15;;;16.70;99.90;;;;;;4987544;28;20132;-70
2021/05/12 10:40:15;;;;;;;13.18;2.75;;;16.70;99.80;;;;;;4987219;28;20142;-70
2021/05/12 10:42:42;;;;;;;9.48;2.40;;;16.80;99.90;;;;;;4986802;28;20124;-70
2021/05/12 10:45:10;;;;;;;7.65;2.28;;;16.90;99.90;;;;;;4985775;28;20358;-70
2021/05/12 10:47:37;;;;;;;10.18;3.20;;;16.90;99.90;;;;;;4992358;28;20137;-71
2021/05/12 10:50:05;;;;;;;12.43;2.58;;;17.00;99.90;;;;;;4989891;28;20054;-70
2021/05/12 10:52:31;;;;;;;7.17;2.70;;;17.00;99.90;;;;;;5003817;28;20054;-70
2021/05/12 10:54:58;;;;;;;9.68;2.47;;;17.10;99.90;;;;;;4988240;28;20557;-70
2021/05/12 10:57:44;;;;;;;10.05;2.80;;;17.10;99.90;;;;;;4987943;28;20046;-70
2021/05/12 11:00:13;;;;;;;8.32;2.70;;;17.00;99.70;;;;;;5001247;28;20089;-71
2021/05/12 11:02:53;;;;;;;13.98;2.80;;;17.00;99.90;;;;;;4989517;28;20767;-70
2021/05/12 11:05:20;;;;;;;11.30;2.85;;;17.10;99.70;;;;;;4987662;28;20128;-70
2021/05/12 11:08:21;;;;;;;9.80;3.20;;;17.10;99.70;;;;;;4988480;28;20524;-70
2021/05/12 11:11:13;;;;;;;9.60;2.85;;;16.90;98.10;;;;;;4986655;28;20060;-70
2021/05/12 11:13:41;;;;;;;9.77;2.78;;;16.80;99.40;;;;;;4987312;28;20120;-70
2021/05/12 11:16:21;;;;;;;9.20;2.35;;;16.60;98.90;;;;;;4987500;28;20046;-70
2021/05/12 11:18:52;;;;;;;12.18;3.28;;;16.80;99.80;;;;;;4990478;28;20042;-70
2021/05/12 11:21:19;;;;;;;11.52;2.58;;;17.10;99.90;;;;;;5004186;28;20070;-70
2021/05/12 11:24:13;;;;;;;11.38;2.72;;;17.40;99.90;;;;;;5003185;28;20092;-70
2021/05/12 11:26:55;;;;;;;10.38;2.53;;;17.50;97.20;;;;;;5004139;28;20057;-71
2021/05/12 11:32:09;;;;;;;9.13;2.67;;;17.80;99.20;;;;;;4987286;28;20149;-71
2021/05/12 11:34:37;;;;;;;10.68;3.00;;;17.70;98.60;;;;;;5004335;28;20560;-71
2021/05/12 11:37:10;;;;;;;12.40;3.13;;;17.60;98.50;;;;;;4992715;28;20048;-71
2021/05/12 11:39:53;;;;;;;8.57;2.75;;;17.60;99.60;;;;;;5017556;28;20125;-71
2021/05/12 11:42:29;;;;;;;7.03;2.70;;;17.80;99.80;;;;;;5004580;28;20046;-71
2021/05/12 11:45:17;;;;;;;10.35;2.20;;;18.10;99.90;;;;;;4987309;28;20047;-71
2021/05/12 11:47:57;;;;;;;5.63;1.92;;;18.30;98.90;;;;;;4990717;28;20405;-71
2021/05/12 11:50:27;;;;;;;8.38;2.03;;;18.50;98.90;;;;;;4986774;28;20057;-71
2021/05/12 11:52:54;;;;;;;7.85;2.40;;;18.70;96.10;;;;;;4988618;28;20046;-70
2021/05/12 11:55:28;;;;;;;8.18;2.15;;;18.70;96.80;;;;;;4986035;28;20145;-71
2021/05/12 11:57:55;;;;;;;9.02;2.17;;;18.70;98.90;;;;;;4988763;28;20458;-71
2021/05/12 12:00:29;;;;;;;9.55;2.03;;;18.70;99.50;;;;;;4996753;28;20188;-72
2021/05/12 12:03:00;;;;;;;7.93;2.20;;;18.70;98.80;;;;;;4986994;28;20073;-71
2021/05/12 12:05:37;;;;;;;12.20;2.80;;;18.70;97.40;;;;;;4990503;28;20502;-71
2021/05/12 12:08:15;;;;;;;11.95;2.17;;;18.70;98.30;;;;;;4988507;28;20078;-71
2021/05/12 12:10:43;;;;;;;12.43;2.58;;;18.70;97.00;;;;;;4983584;28;20482;-71
2021/05/12 12:13:11;;;;;;;;;;;18.70;97.50;;;;;;4990059;28;20121;-71
2021/05/12 12:15:39;;;;;;;9.48;2.38;;;18.50;92.60;;;;;;4985197;28;19984;-71
2021/05/12 12:18:06;;;;;;;;;;;18.40;97.70;;;;;;4999117;28;20046;-71
2021/05/12 12:20:33;;;;;;;10.65;2.35;;;18.40;96.10;;;;;;4992627;28;19936;-71
2021/05/12 12:23:04;;;;;;;11.07;2.90;;;18.30;96.80;;;;;;5003104;28;20046;-71
2021/05/12 12:25:41;;;;;;;9.05;2.70;;;18.10;97.00;;;;;;4992454;28;20054;-71
2021/05/12 12:28:08;;;;;;;13.55;2.90;;;18.00;96.60;;;;;;4995299;28;20089;-71
2021/05/12 12:30:35;;;;;;;13.07;3.17;;;18.00;97.70;;;;;;4988840;28;20533;-71
2021/05/12 12:33:02;;;;;;;11.57;2.75;;;18.20;96.80;;;;;;4995949;28;20413;-71
2021/05/12 12:35:29;;;;;;;10.38;3.00;;;18.40;97.50;;;;;;4988215;28;20143;-71
2021/05/12 12:37:56;;;;;;;12.23;2.78;;;18.50;97.60;;;;;;5007879;28;20133;-71
2021/05/12 12:40:23;;;;;;;9.27;2.55;;;18.50;97.10;;;;;;5002632;28;20129;-71
2021/05/12 12:42:52;;;;;;;8.02;2.10;;;18.50;97.60;;;;;;5024712;28;20704;-71
2021/05/12 12:45:31;;;;;;;11.98;2.15;;;18.50;97.60;;;;;;4989982;28;20073;-71
2021/05/12 12:48:07;;;;;;;11.07;2.45;;;18.40;97.70;;;;;;4991726;28;20069;-71
2021/05/12 12:50:36;;;;;;;8.65;2.03;;;18.40;95.60;;;;;;4990126;28;20409;-71
2021/05/12 12:53:07;;;;;;;8.50;2.20;;;18.30;96.90;;;;;;4990547;28;20133;-71
2021/05/12 12:55:37;;;;;;;8.75;2.08;;;18.30;96.00;;;;;;4992825;28;20137;-71